sensor_id;sensor_type;location;lat;lon;timestamp;pressure;altitude;pressure_sealevel;temperature;humidity
71239;BME280;61342;51.442;7.370;2023-04-24T00:00:30;98538.94;;;12.85;80.01
71239;BME280;61342;51.442;7.370;2023-04-24T00:01:31;98538.94;;;12.85;79.80
71239;BME280;61342;51.442;7.370;2023-04-24T00:02:32;98534.13;;;12.80;80.07
71239;BME280;61342;51.442;7.370;2023-04-24T00:03:32;98539.50;;;12.83;80.18
71239;BME280;61342;51.442;7.370;2023-04-24T00:04:33;98538.41;;;12.79;80.26
71239;BME280;61342;51.442;7.370;2023-04-24T00:05:33;98536.84;;;12.78;80.15
71239;BME280;61342;51.442;7.370;2023-04-24T00:06:34;98537.44;;;12.76;80.20
71239;BME280;61342;51.442;7.370;2023-04-24T00:07:34;98542.63;;;12.78;80.48
71239;BME280;61342;51.442;7.370;2023-04-24T00:08:35;98545.66;;;12.80;80.04
71239;BME280;61342;51.442;7.370;2023-04-24T00:09:36;98534.13;;;12.87;80.02
71239;BME280;61342;51.442;7.370;2023-04-24T00:10:36;98524.66;;;12.94;79.70
71239;BME280;61342;51.442;7.370;2023-04-24T00:11:37;98552.81;;;13.11;79.38
71239;BME280;61342;51.442;7.370;2023-04-24T00:12:38;98545.78;;;13.21;79.08
71239;BME280;61342;51.442;7.370;2023-04-24T00:13:38;98548.00;;;13.30;78.63
71239;BME280;61342;51.442;7.370;2023-04-24T00:14:39;98547.59;;;13.33;78.60
71239;BME280;61342;51.442;7.370;2023-04-24T00:15:39;98537.75;;;13.36;77.73
71239;BME280;61342;51.442;7.370;2023-04-24T00:16:39;98540.06;;;13.38;77.99
71239;BME280;61342;51.442;7.370;2023-04-24T00:17:40;98539.72;;;13.34;77.96
71239;BME280;61342;51.442;7.370;2023-04-24T00:18:40;98545.31;;;13.32;77.69
71239;BME280;61342;51.442;7.370;2023-04-24T00:19:41;98549.72;;;13.33;77.61
71239;BME280;61342;51.442;7.370;2023-04-24T00:20:41;98547.44;;;13.31;77.55
71239;BME280;61342;51.442;7.370;2023-04-24T00:21:43;98543.59;;;13.29;77.56
71239;BME280;61342;51.442;7.370;2023-04-24T00:22:44;98562.09;;;13.26;77.65
71239;BME280;61342;51.442;7.370;2023-04-24T00:23:44;98550.19;;;13.22;77.50
71239;BME280;61342;51.442;7.370;2023-04-24T00:24:44;98548.50;;;13.19;77.65
71239;BME280;61342;51.442;7.370;2023-04-24T00:25:45;98537.84;;;13.05;77.51
71239;BME280;61342;51.442;7.370;2023-04-24T00:26:45;98549.31;;;13.12;77.66
71239;BME280;61342;51.442;7.370;2023-04-24T00:27:45;98540.13;;;13.06;77.87
71239;BME280;61342;51.442;7.370;2023-04-24T00:28:46;98544.25;;;12.96;77.78
71239;BME280;61342;51.442;7.370;2023-04-24T00:29:46;98544.03;;;13.01;77.95
71239;BME280;61342;51.442;7.370;2023-04-24T00:30:47;98532.69;;;12.96;77.78
71239;BME280;61342;51.442;7.370;2023-04-24T00:31:47;98541.94;;;12.94;77.90
71239;BME280;61342;51.442;7.370;2023-04-24T00:32:48;98552.53;;;12.92;78.19
71239;BME280;61342;51.442;7.370;2023-04-24T00:33:48;98536.81;;;12.85;78.33
71239;BME280;61342;51.442;7.370;2023-04-24T00:34:48;98553.56;;;12.87;78.33
71239;BME280;61342;51.442;7.370;2023-04-24T00:35:49;98545.09;;;12.81;78.38
71239;BME280;61342;51.442;7.370;2023-04-24T00:36:49;98543.56;;;12.80;78.41
71239;BME280;61342;51.442;7.370;2023-04-24T00:37:52;98547.59;;;12.77;78.10
71239;BME280;61342;51.442;7.370;2023-04-24T00:38:53;98538.03;;;12.75;78.67
71239;BME280;61342;51.442;7.370;2023-04-24T00:39:53;98532.06;;;12.73;78.71
71239;BME280;61342;51.442;7.370;2023-04-24T00:40:54;98538.44;;;12.71;78.60
71239;BME280;61342;51.442;7.370;2023-04-24T00:41:54;98534.59;;;12.69;78.96
71239;BME280;61342;51.442;7.370;2023-04-24T00:42:55;98530.97;;;12.68;78.92
71239;BME280;61342;51.442;7.370;2023-04-24T00:43:56;98531.94;;;12.64;78.89
71239;BME280;61342;51.442;7.370;2023-04-24T00:44:57;98540.00;;;12.65;79.12
71239;BME280;61342;51.442;7.370;2023-04-24T00:45:58;98540.25;;;12.60;78.85
71239;BME280;61342;51.442;7.370;2023-04-24T00:46:59;98556.19;;;12.61;79.11
71239;BME280;61342;51.442;7.370;2023-04-24T00:48:01;98553.13;;;12.59;79.28
71239;BME280;61342;51.442;7.370;2023-04-24T00:49:02;98538.94;;;12.53;79.58
71239;BME280;61342;51.442;7.370;2023-04-24T00:50:03;98550.63;;;12.55;79.81
71239;BME280;61342;51.442;7.370;2023-04-24T00:51:03;98543.94;;;12.53;79.32
71239;BME280;61342;51.442;7.370;2023-04-24T00:52:04;98547.38;;;12.51;79.74
71239;BME280;61342;51.442;7.370;2023-04-24T00:53:07;98537.22;;;12.50;79.89
71239;BME280;61342;51.442;7.370;2023-04-24T00:54:08;98539.91;;;12.48;80.07
71239;BME280;61342;51.442;7.370;2023-04-24T00:55:08;98540.91;;;12.43;79.86
71239;BME280;61342;51.442;7.370;2023-04-24T00:56:09;98542.03;;;12.48;79.86
71239;BME280;61342;51.442;7.370;2023-04-24T00:57:10;98537.81;;;12.49;79.59
71239;BME280;61342;51.442;7.370;2023-04-24T00:58:10;98535.31;;;12.45;79.89
71239;BME280;61342;51.442;7.370;2023-04-24T00:59:16;98528.78;;;12.45;79.84
71239;BME280;61342;51.442;7.370;2023-04-24T01:00:17;98535.72;;;12.42;79.85
71239;BME280;61342;51.442;7.370;2023-04-24T01:01:21;98516.00;;;12.31;79.93
71239;BME280;61342;51.442;7.370;2023-04-24T01:02:22;98538.78;;;12.44;80.08
71239;BME280;61342;51.442;7.370;2023-04-24T01:03:29;98537.06;;;12.41;80.15
71239;BME280;61342;51.442;7.370;2023-04-24T01:04:30;98533.63;;;12.42;79.53
71239;BME280;61342;51.442;7.370;2023-04-24T01:05:31;98538.59;;;12.42;79.52
71239;BME280;61342;51.442;7.370;2023-04-24T01:06:32;98537.06;;;12.41;79.73
71239;BME280;61342;51.442;7.370;2023-04-24T01:07:33;98539.19;;;12.40;79.55
71239;BME280;61342;51.442;7.370;2023-04-24T01:08:34;98529.59;;;12.38;79.69
71239;BME280;61342;51.442;7.370;2023-04-24T01:09:36;98541.13;;;12.38;79.65
71239;BME280;61342;51.442;7.370;2023-04-24T01:10:38;98532.09;;;12.41;79.61
71239;BME280;61342;51.442;7.370;2023-04-24T01:11:40;98535.56;;;12.40;79.55
71239;BME280;61342;51.442;7.370;2023-04-24T01:12:41;98532.31;;;12.36;79.46
71239;BME280;61342;51.442;7.370;2023-04-24T01:13:42;98538.06;;;12.36;79.36
71239;BME280;61342;51.442;7.370;2023-04-24T01:14:42;98536.69;;;12.37;79.17
71239;BME280;61342;51.442;7.370;2023-04-24T01:15:43;98527.16;;;12.27;79.31
71239;BME280;61342;51.442;7.370;2023-04-24T01:16:43;98538.28;;;12.30;78.76
71239;BME280;61342;51.442;7.370;2023-04-24T01:17:44;98546.34;;;12.32;78.84
71239;BME280;61342;51.442;7.370;2023-04-24T01:18:45;98541.19;;;12.30;78.84
71239;BME280;61342;51.442;7.370;2023-04-24T01:19:46;98544.81;;;12.31;78.96
71239;BME280;61342;51.442;7.370;2023-04-24T01:20:46;98537.72;;;12.32;78.66
71239;BME280;61342;51.442;7.370;2023-04-24T01:21:50;98547.06;;;12.40;78.57
71239;BME280;61342;51.442;7.370;2023-04-24T01:22:52;98534.75;;;12.47;78.54
71239;BME280;61342;51.442;7.370;2023-04-24T01:23:54;98534.72;;;12.54;77.95
71239;BME280;61342;51.442;7.370;2023-04-24T01:24:56;98546.13;;;12.69;77.56
71239;BME280;61342;51.442;7.370;2023-04-24T01:25:56;98536.06;;;12.77;76.96
71239;BME280;61342;51.442;7.370;2023-04-24T01:26:56;98521.88;;;12.72;76.78
71239;BME280;61342;51.442;7.370;2023-04-24T01:27:58;98540.84;;;12.90;76.82
71239;BME280;61342;51.442;7.370;2023-04-24T01:28:58;98540.25;;;12.91;76.75
71239;BME280;61342;51.442;7.370;2023-04-24T01:29:59;98536.00;;;12.92;76.64
71239;BME280;61342;51.442;7.370;2023-04-24T01:30:59;98543.88;;;12.92;76.67
71239;BME280;61342;51.442;7.370;2023-04-24T01:32:00;98537.38;;;12.91;76.51
71239;BME280;61342;51.442;7.370;2023-04-24T01:33:00;98548.31;;;12.93;76.64
71239;BME280;61342;51.442;7.370;2023-04-24T01:34:02;98539.31;;;12.89;76.70
71239;BME280;61342;51.442;7.370;2023-04-24T01:35:03;98536.41;;;12.89;76.54
71239;BME280;61342;51.442;7.370;2023-04-24T01:36:04;98546.81;;;12.84;76.90
71239;BME280;61342;51.442;7.370;2023-04-24T01:37:04;98539.31;;;12.81;76.83
71239;BME280;61342;51.442;7.370;2023-04-24T01:38:05;98536.50;;;12.74;76.60
71239;BME280;61342;51.442;7.370;2023-04-24T01:39:05;98541.69;;;12.75;76.95
71239;BME280;61342;51.442;7.370;2023-04-24T01:40:06;98538.44;;;12.71;77.16
71239;BME280;61342;51.442;7.370;2023-04-24T01:41:07;98551.16;;;12.68;77.38
71239;BME280;61342;51.442;7.370;2023-04-24T01:42:08;98540.16;;;12.67;77.62
71239;BME280;61342;51.442;7.370;2023-04-24T01:43:08;98543.66;;;12.65;77.59
71239;BME280;61342;51.442;7.370;2023-04-24T01:44:08;98548.47;;;12.63;77.85
71239;BME280;61342;51.442;7.370;2023-04-24T01:45:11;98546.16;;;12.62;77.63
71239;BME280;61342;51.442;7.370;2023-04-24T01:46:13;98544.47;;;12.59;77.82
71239;BME280;61342;51.442;7.370;2023-04-24T01:47:13;98545.81;;;12.58;78.06
71239;BME280;61342;51.442;7.370;2023-04-24T01:48:14;98530.88;;;12.52;78.05
71239;BME280;61342;51.442;7.370;2023-04-24T01:49:15;98539.31;;;12.50;78.15
71239;BME280;61342;51.442;7.370;2023-04-24T01:50:15;98536.28;;;12.48;78.40
71239;BME280;61342;51.442;7.370;2023-04-24T01:51:16;98544.13;;;12.47;78.40
71239;BME280;61342;51.442;7.370;2023-04-24T01:52:17;98546.25;;;12.47;78.35
71239;BME280;61342;51.442;7.370;2023-04-24T01:53:18;98540.13;;;12.43;78.90
71239;BME280;61342;51.442;7.370;2023-04-24T01:54:19;98544.38;;;12.42;78.82
71239;BME280;61342;51.442;7.370;2023-04-24T01:55:19;98536.13;;;12.38;78.91
71239;BME280;61342;51.442;7.370;2023-04-24T01:56:21;98546.28;;;12.39;78.87
71239;BME280;61342;51.442;7.370;2023-04-24T01:57:22;98532.09;;;12.34;79.00
71239;BME280;61342;51.442;7.370;2023-04-24T01:58:23;98545.19;;;12.35;78.85
71239;BME280;61342;51.442;7.370;2023-04-24T01:59:25;98533.44;;;12.33;79.15
71239;BME280;61342;51.442;7.370;2023-04-24T02:00:27;98532.69;;;12.32;79.24
71239;BME280;61342;51.442;7.370;2023-04-24T02:01:27;98541.34;;;12.32;79.20
71239;BME280;61342;51.442;7.370;2023-04-24T02:02:33;98539.63;;;12.29;79.57
71239;BME280;61342;51.442;7.370;2023-04-24T02:03:33;98538.69;;;12.27;79.37
71239;BME280;61342;51.442;7.370;2023-04-24T02:04:34;98535.97;;;12.29;79.37
71239;BME280;61342;51.442;7.370;2023-04-24T02:05:34;98528.69;;;12.28;79.58
71239;BME280;61342;51.442;7.370;2023-04-24T02:06:35;98532.56;;;12.23;79.32
71239;BME280;61342;51.442;7.370;2023-04-24T02:07:35;98538.31;;;12.23;79.48
71239;BME280;61342;51.442;7.370;2023-04-24T02:08:36;98533.91;;;12.22;79.61
71239;BME280;61342;51.442;7.370;2023-04-24T02:09:36;98544.09;;;12.23;79.70
71239;BME280;61342;51.442;7.370;2023-04-24T02:10:36;98536.41;;;12.18;79.58
71239;BME280;61342;51.442;7.370;2023-04-24T02:11:37;98535.81;;;12.19;79.54
71239;BME280;61342;51.442;7.370;2023-04-24T02:12:37;98537.97;;;12.19;79.80
71239;BME280;61342;51.442;7.370;2023-04-24T02:13:38;98522.63;;;12.09;79.62
71239;BME280;61342;51.442;7.370;2023-04-24T02:14:38;98544.88;;;12.16;79.67
71239;BME280;61342;51.442;7.370;2023-04-24T02:15:38;98544.88;;;12.16;79.74
71239;BME280;61342;51.442;7.370;2023-04-24T02:16:39;98551.63;;;12.11;79.59
71239;BME280;61342;51.442;7.370;2023-04-24T02:17:39;98547.56;;;12.14;79.81
71239;BME280;61342;51.442;7.370;2023-04-24T02:18:40;98559.47;;;12.10;79.61
71239;BME280;61342;51.442;7.370;2023-04-24T02:19:40;98558.72;;;12.10;79.62
71239;BME280;61342;51.442;7.370;2023-04-24T02:20:40;98551.06;;;12.05;79.54
71239;BME280;61342;51.442;7.370;2023-04-24T02:21:41;98546.84;;;12.06;79.66
71239;BME280;61342;51.442;7.370;2023-04-24T02:22:41;98561.03;;;12.04;79.40
71239;BME280;61342;51.442;7.370;2023-04-24T02:23:41;98553.19;;;11.97;79.47
71239;BME280;61342;51.442;7.370;2023-04-24T02:24:42;98559.75;;;11.98;79.44
71239;BME280;61342;51.442;7.370;2023-04-24T02:25:42;98557.41;;;11.96;79.67
71239;BME280;61342;51.442;7.370;2023-04-24T02:26:42;98544.03;;;11.84;79.41
71239;BME280;61342;51.442;7.370;2023-04-24T02:27:43;98553.41;;;11.92;79.64
71239;BME280;61342;51.442;7.370;2023-04-24T02:28:43;98550.38;;;11.90;79.62
71239;BME280;61342;51.442;7.370;2023-04-24T02:29:43;98547.28;;;11.88;79.51
71239;BME280;61342;51.442;7.370;2023-04-24T02:30:44;98552.28;;;11.87;79.51
71239;BME280;61342;51.442;7.370;2023-04-24T02:31:45;98549.59;;;11.82;79.79
71239;BME280;61342;51.442;7.370;2023-04-24T02:32:45;98550.38;;;11.82;79.73
71239;BME280;61342;51.442;7.370;2023-04-24T02:33:46;98564.19;;;11.76;79.66
71239;BME280;61342;51.442;7.370;2023-04-24T02:34:46;98555.38;;;11.74;79.60
71239;BME280;61342;51.442;7.370;2023-04-24T02:35:47;98560.19;;;11.79;79.68
71239;BME280;61342;51.442;7.370;2023-04-24T02:36:47;98563.59;;;11.78;79.55
71239;BME280;61342;51.442;7.370;2023-04-24T02:37:47;98562.31;;;11.71;79.84
71239;BME280;61342;51.442;7.370;2023-04-24T02:38:48;98561.72;;;11.73;79.99
71239;BME280;61342;51.442;7.370;2023-04-24T02:39:48;98562.69;;;11.75;80.17
71239;BME280;61342;51.442;7.370;2023-04-24T02:40:48;98563.44;;;11.76;80.08
71239;BME280;61342;51.442;7.370;2023-04-24T02:41:49;98568.03;;;11.79;79.87
71239;BME280;61342;51.442;7.370;2023-04-24T02:42:49;98556.88;;;11.83;79.96
71239;BME280;61342;51.442;7.370;2023-04-24T02:43:49;98564.72;;;11.97;79.89
71239;BME280;61342;51.442;7.370;2023-04-24T02:44:50;98571.41;;;12.07;79.34
71239;BME280;61342;51.442;7.370;2023-04-24T02:45:51;98580.22;;;12.16;79.01
71239;BME280;61342;51.442;7.370;2023-04-24T02:46:51;98581.69;;;12.25;78.62
71239;BME280;61342;51.442;7.370;2023-04-24T02:47:52;98569.06;;;12.20;78.45
71239;BME280;61342;51.442;7.370;2023-04-24T02:48:52;98574.81;;;12.20;77.96
71239;BME280;61342;51.442;7.370;2023-04-24T02:49:52;98585.16;;;12.31;78.06
71239;BME280;61342;51.442;7.370;2023-04-24T02:50:53;98589.56;;;12.32;77.96
71239;BME280;61342;51.442;7.370;2023-04-24T02:51:53;98587.84;;;12.29;78.00
71239;BME280;61342;51.442;7.370;2023-04-24T02:52:53;98582.06;;;12.29;78.13
71239;BME280;61342;51.442;7.370;2023-04-24T02:53:54;98573.47;;;12.21;77.95
71239;BME280;61342;51.442;7.370;2023-04-24T02:54:54;98585.59;;;12.20;78.08
71239;BME280;61342;51.442;7.370;2023-04-24T02:55:54;98573.69;;;12.16;78.12
71239;BME280;61342;51.442;7.370;2023-04-24T02:56:55;98584.25;;;12.13;78.40
71239;BME280;61342;51.442;7.370;2023-04-24T02:57:56;98573.13;;;12.10;78.38
71239;BME280;61342;51.442;7.370;2023-04-24T02:58:57;98578.31;;;12.04;78.83
71239;BME280;61342;51.442;7.370;2023-04-24T02:59:57;98582.19;;;11.99;78.67
71239;BME280;61342;51.442;7.370;2023-04-24T03:00:58;98560.91;;;11.87;78.92
71239;BME280;61342;51.442;7.370;2023-04-24T03:01:58;98577.59;;;11.89;79.00
71239;BME280;61342;51.442;7.370;2023-04-24T03:02:58;98575.31;;;11.87;79.39
71239;BME280;61342;51.442;7.370;2023-04-24T03:03:59;98574.75;;;11.81;79.55
71239;BME280;61342;51.442;7.370;2023-04-24T03:04:59;98586.25;;;11.81;79.67
71239;BME280;61342;51.442;7.370;2023-04-24T03:05:59;98590.09;;;11.76;79.86
71239;BME280;61342;51.442;7.370;2023-04-24T03:07:00;98584.16;;;11.74;79.98
71239;BME280;61342;51.442;7.370;2023-04-24T03:08:01;98591.63;;;11.70;80.34
71239;BME280;61342;51.442;7.370;2023-04-24T03:09:01;98590.72;;;11.67;80.47
71239;BME280;61342;51.442;7.370;2023-04-24T03:10:04;98588.97;;;11.64;80.50
71239;BME280;61342;51.442;7.370;2023-04-24T03:11:05;98584.00;;;11.57;80.56
71239;BME280;61342;51.442;7.370;2023-04-24T03:12:06;98589.75;;;11.57;80.74
71239;BME280;61342;51.442;7.370;2023-04-24T03:13:06;98590.13;;;11.54;81.16
71239;BME280;61342;51.442;7.370;2023-04-24T03:14:06;98588.41;;;11.51;81.01
71239;BME280;61342;51.442;7.370;2023-04-24T03:15:07;98595.31;;;11.48;81.35
71239;BME280;61342;51.442;7.370;2023-04-24T03:16:08;98607.00;;;11.50;81.48
71239;BME280;61342;51.442;7.370;2023-04-24T03:17:08;98601.81;;;11.48;81.41
71239;BME280;61342;51.442;7.370;2023-04-24T03:18:09;98595.69;;;11.45;81.54
71239;BME280;61342;51.442;7.370;2023-04-24T03:19:09;98601.44;;;11.45;81.60
71239;BME280;61342;51.442;7.370;2023-04-24T03:20:10;98591.09;;;11.42;81.70
71239;BME280;61342;51.442;7.370;2023-04-24T03:21:11;98609.88;;;11.43;81.70
71239;BME280;61342;51.442;7.370;2023-04-24T03:22:11;98595.28;;;11.41;82.01
71239;BME280;61342;51.442;7.370;2023-04-24T03:23:12;98593.38;;;11.36;81.91
71239;BME280;61342;51.442;7.370;2023-04-24T03:24:12;98600.50;;;11.35;82.26
71239;BME280;61342;51.442;7.370;2023-04-24T03:25:13;98595.50;;;11.35;82.30
71239;BME280;61342;51.442;7.370;2023-04-24T03:26:13;98596.44;;;11.30;82.43
71239;BME280;61342;51.442;7.370;2023-04-24T03:27:14;98608.34;;;11.34;82.84
71239;BME280;61342;51.442;7.370;2023-04-24T03:28:14;98601.44;;;11.30;82.66
71239;BME280;61342;51.442;7.370;2023-04-24T03:29:14;98605.06;;;11.30;82.77
71239;BME280;61342;51.442;7.370;2023-04-24T03:30:15;98597.22;;;11.23;83.12
71239;BME280;61342;51.442;7.370;2023-04-24T03:31:15;98591.84;;;11.27;83.08
71239;BME280;61342;51.442;7.370;2023-04-24T03:32:16;98589.56;;;11.26;83.16
71239;BME280;61342;51.442;7.370;2023-04-24T03:33:17;98594.72;;;11.20;83.13
71239;BME280;61342;51.442;7.370;2023-04-24T03:34:17;98589.53;;;11.18;83.37
71239;BME280;61342;51.442;7.370;2023-04-24T03:35:17;98599.72;;;11.27;83.21
71239;BME280;61342;51.442;7.370;2023-04-24T03:36:18;98594.91;;;11.22;83.50
71239;BME280;61342;51.442;7.370;2023-04-24T03:37:19;98604.09;;;11.28;83.17
71239;BME280;61342;51.442;7.370;2023-04-24T03:38:19;98599.72;;;11.27;83.49
71239;BME280;61342;51.442;7.370;2023-04-24T03:39:20;98584.94;;;11.15;83.68
71239;BME280;61342;51.442;7.370;2023-04-24T03:40:20;98580.91;;;11.11;83.78
71239;BME280;61342;51.442;7.370;2023-04-24T03:41:20;98607.78;;;11.28;83.73
71239;BME280;61342;51.442;7.370;2023-04-24T03:42:22;98602.03;;;11.28;83.98
71239;BME280;61342;51.442;7.370;2023-04-24T03:43:22;98594.72;;;11.20;83.49
71239;BME280;61342;51.442;7.370;2023-04-24T03:44:22;98601.06;;;11.26;83.99
71239;BME280;61342;51.442;7.370;2023-04-24T03:45:23;98610.44;;;11.26;83.85
71239;BME280;61342;51.442;7.370;2023-04-24T03:46:24;98609.88;;;11.28;83.98
71239;BME280;61342;51.442;7.370;2023-04-24T03:47:24;98590.13;;;11.17;84.27
71239;BME280;61342;51.442;7.370;2023-04-24T03:48:24;98614.09;;;11.27;84.07
71239;BME280;61342;51.442;7.370;2023-04-24T03:49:25;98598.00;;;11.16;84.02
71239;BME280;61342;51.442;7.370;2023-04-24T03:50:25;98593.00;;;11.17;84.20
71239;BME280;61342;51.442;7.370;2023-04-24T03:51:26;98597.41;;;11.25;84.06
71239;BME280;61342;51.442;7.370;2023-04-24T03:52:28;98610.63;;;11.36;84.05
71239;BME280;61342;51.442;7.370;2023-04-24T03:53:28;98605.47;;;11.42;83.96
71239;BME280;61342;51.442;7.370;2023-04-24T03:54:28;98596.47;;;11.45;83.63
71239;BME280;61342;51.442;7.370;2023-04-24T03:55:29;98605.69;;;11.58;83.12
71239;BME280;61342;51.442;7.370;2023-04-24T03:56:29;98594.34;;;11.60;83.00
71239;BME280;61342;51.442;7.370;2023-04-24T03:57:30;98599.91;;;11.73;82.61
71239;BME280;61342;51.442;7.370;2023-04-24T03:58:30;98594.34;;;11.75;82.15
71239;BME280;61342;51.442;7.370;2023-04-24T03:59:31;98599.09;;;11.80;81.88
71239;BME280;61342;51.442;7.370;2023-04-24T04:00:31;98594.50;;;11.85;82.39
71239;BME280;61342;51.442;7.370;2023-04-24T04:01:32;98606.19;;;11.94;81.56
71239;BME280;61342;51.442;7.370;2023-04-24T04:02:32;98602.19;;;11.90;81.78
71239;BME280;61342;51.442;7.370;2023-04-24T04:03:33;98614.84;;;11.94;81.80
71239;BME280;61342;51.442;7.370;2023-04-24T04:04:33;98603.53;;;11.89;81.60
71239;BME280;61342;51.442;7.370;2023-04-24T04:05:33;98606.00;;;11.92;81.69
71239;BME280;61342;51.442;7.370;2023-04-24T04:06:34;98604.47;;;11.91;82.02
71239;BME280;61342;51.442;7.370;2023-04-24T04:07:36;98601.41;;;11.89;81.78
71239;BME280;61342;51.442;7.370;2023-04-24T04:08:36;98602.75;;;11.88;81.52
71239;BME280;61342;51.442;7.370;2023-04-24T04:09:37;98616.97;;;11.86;81.50
71239;BME280;61342;51.442;7.370;2023-04-24T04:10:37;98603.72;;;11.76;81.92
71239;BME280;61342;51.442;7.370;2023-04-24T04:11:38;98597.22;;;11.75;81.88
71239;BME280;61342;51.442;7.370;2023-04-24T04:12:38;98610.63;;;11.80;81.91
71239;BME280;61342;51.442;7.370;2023-04-24T04:13:38;98614.09;;;11.79;82.04
71239;BME280;61342;51.442;7.370;2023-04-24T04:14:39;98609.13;;;11.72;82.06
71239;BME280;61342;51.442;7.370;2023-04-24T04:15:40;98600.84;;;11.68;82.06
71239;BME280;61342;51.442;7.370;2023-04-24T04:16:40;98610.28;;;11.69;81.91
71239;BME280;61342;51.442;7.370;2023-04-24T04:17:41;98612.56;;;11.70;82.23
71239;BME280;61342;51.442;7.370;2023-04-24T04:18:41;98612.00;;;11.64;82.42
71239;BME280;61342;51.442;7.370;2023-04-24T04:19:42;98617.97;;;11.66;82.59
71239;BME280;61342;51.442;7.370;2023-04-24T04:20:42;98613.53;;;11.65;82.57
71239;BME280;61342;51.442;7.370;2023-04-24T04:21:42;98614.50;;;11.60;82.47
71239;BME280;61342;51.442;7.370;2023-04-24T04:22:43;98618.91;;;11.61;82.71
71239;BME280;61342;51.442;7.370;2023-04-24T04:23:43;98600.09;;;11.46;82.46
71239;BME280;61342;51.442;7.370;2023-04-24T04:24:43;98617.19;;;11.58;82.72
71239;BME280;61342;51.442;7.370;2023-04-24T04:25:44;98619.13;;;11.56;83.03
71239;BME280;61342;51.442;7.370;2023-04-24T04:26:44;98625.25;;;11.52;83.05
71239;BME280;61342;51.442;7.370;2023-04-24T04:27:47;98601.44;;;11.45;82.83
71239;BME280;61342;51.442;7.370;2023-04-24T04:28:51;98598.00;;;11.39;83.00
71239;BME280;61342;51.442;7.370;2023-04-24T04:29:52;98610.25;;;11.47;83.15
71239;BME280;61342;51.442;7.370;2023-04-24T04:30:53;98616.78;;;11.47;83.36
71239;BME280;61342;51.442;7.370;2023-04-24T04:31:58;98615.63;;;11.43;83.33
71239;BME280;61342;51.442;7.370;2023-04-24T04:32:59;98607.97;;;11.38;83.19
71239;BME280;61342;51.442;7.370;2023-04-24T04:33:59;98611.41;;;11.36;83.25
71239;BME280;61342;51.442;7.370;2023-04-24T04:35:01;98610.63;;;11.36;83.30
71239;BME280;61342;51.442;7.370;2023-04-24T04:36:05;98611.22;;;11.34;83.49
71239;BME280;61342;51.442;7.370;2023-04-24T04:37:05;98605.06;;;11.30;83.36
71239;BME280;61342;51.442;7.370;2023-04-24T04:38:06;98611.00;;;11.40;83.56
71239;BME280;61342;51.442;7.370;2023-04-24T04:39:08;98603.75;;;11.31;83.59
71239;BME280;61342;51.442;7.370;2023-04-24T04:40:09;98623.31;;;11.40;83.67
71239;BME280;61342;51.442;7.370;2023-04-24T04:41:12;98622.13;;;11.36;83.47
71239;BME280;61342;51.442;7.370;2023-04-24T04:42:12;98625.22;;;11.38;83.69
71239;BME280;61342;51.442;7.370;2023-04-24T04:43:13;98627.13;;;11.35;83.82
71239;BME280;61342;51.442;7.370;2023-04-24T04:44:15;98611.03;;;11.32;83.78
71239;BME280;61342;51.442;7.370;2023-04-24T04:45:15;98630.00;;;11.35;83.70
71239;BME280;61342;51.442;7.370;2023-04-24T04:46:16;98617.75;;;11.35;83.66
71239;BME280;61342;51.442;7.370;2023-04-24T04:47:17;98621.97;;;11.34;83.63
71239;BME280;61342;51.442;7.370;2023-04-24T04:48:18;98623.28;;;11.33;83.63
71239;BME280;61342;51.442;7.370;2023-04-24T04:49:19;98630.38;;;11.32;83.71
71239;BME280;61342;51.442;7.370;2023-04-24T04:50:21;98622.34;;;11.30;83.65
71239;BME280;61342;51.442;7.370;2023-04-24T04:51:22;98627.50;;;11.32;83.77
71239;BME280;61342;51.442;7.370;2023-04-24T04:52:23;98631.75;;;11.31;83.85
71239;BME280;61342;51.442;7.370;2023-04-24T04:53:25;98621.38;;;11.28;84.10
71239;BME280;61342;51.442;7.370;2023-04-24T04:54:26;98604.50;;;11.17;83.49
71239;BME280;61342;51.442;7.370;2023-04-24T04:55:26;98628.28;;;11.25;83.86
71239;BME280;61342;51.442;7.370;2023-04-24T04:56:27;98630.41;;;11.24;83.71
71239;BME280;61342;51.442;7.370;2023-04-24T04:57:27;98626.94;;;11.26;83.94
71239;BME280;61342;51.442;7.370;2023-04-24T04:58:27;98622.34;;;11.23;83.94
71239;BME280;61342;51.442;7.370;2023-04-24T04:59:28;98626.56;;;11.22;83.73
71239;BME280;61342;51.442;7.370;2023-04-24T05:00:28;98622.13;;;11.21;84.07
71239;BME280;61342;51.442;7.370;2023-04-24T05:01:33;98625.59;;;11.19;83.91
71239;BME280;61342;51.442;7.370;2023-04-24T05:02:34;98620.41;;;11.18;84.08
71239;BME280;61342;51.442;7.370;2023-04-24T05:03:34;98626.56;;;11.22;84.08
71239;BME280;61342;51.442;7.370;2023-04-24T05:04:35;98625.78;;;11.21;83.95
71239;BME280;61342;51.442;7.370;2023-04-24T05:05:36;98625.78;;;11.21;83.98
71239;BME280;61342;51.442;7.370;2023-04-24T05:06:40;98611.78;;;11.18;83.96
71239;BME280;61342;51.442;7.370;2023-04-24T05:07:40;98623.47;;;11.20;84.08
71239;BME280;61342;51.442;7.370;2023-04-24T05:08:41;98622.91;;;11.21;84.06
71239;BME280;61342;51.442;7.370;2023-04-24T05:09:41;98627.13;;;11.20;84.25
71239;BME280;61342;51.442;7.370;2023-04-24T05:10:41;98627.13;;;11.20;84.28
71239;BME280;61342;51.442;7.370;2023-04-24T05:11:42;98621.94;;;11.19;84.52
71239;BME280;61342;51.442;7.370;2023-04-24T05:12:42;98618.50;;;11.20;84.19
71239;BME280;61342;51.442;7.370;2023-04-24T05:13:43;98618.28;;;11.18;84.24
71239;BME280;61342;51.442;7.370;2023-04-24T05:14:43;98625.00;;;11.21;84.45
71239;BME280;61342;51.442;7.370;2023-04-24T05:15:43;98606.41;;;11.14;84.47
71239;BME280;61342;51.442;7.370;2023-04-24T05:16:44;98609.09;;;11.20;84.34
71239;BME280;61342;51.442;7.370;2023-04-24T05:17:44;98619.06;;;11.19;84.22
71239;BME280;61342;51.442;7.370;2023-04-24T05:18:45;98614.66;;;11.18;84.43
71239;BME280;61342;51.442;7.370;2023-04-24T05:19:46;98612.56;;;11.18;84.42
71239;BME280;61342;51.442;7.370;2023-04-24T05:20:46;98616.97;;;11.19;84.45
71239;BME280;61342;51.442;7.370;2023-04-24T05:21:46;98617.53;;;11.18;84.09